Time;durP1;ratioP1;P1;durP2;ratioP2;P2;SDS_P1;SDS_P2;PMS_P1;PMS_P2;Temp;Humidity;BMP_temperature;BMP_pressure;BME280_temperature;BME280_humidity;BME280_pressure;Samples;Min_cycle;Max_cycle;Signal;HPM_P1;HPM_P2
2023/10/24 00:00:29;;;;;;;5.43;4.53;;;;;;;17.26;57.43;97846.88;6973588;28;20215;-82
2023/10/24 00:03:50;;;;;;;8.17;4.50;;;;;;;17.39;56.61;97821.88;6947002;28;20201;-82
2023/10/24 00:07:12;;;;;;;5.43;4.70;;;;;;;17.05;58.14;97842.50;6946452;28;20285;-81
2023/10/24 00:10:34;;;;;;;5.87;4.33;;;;;;;16.97;58.47;97838.38;6968591;28;20370;-82
2023/10/24 00:13:57;;;;;;;6.60;4.73;;;;;;;17.23;57.76;97829.16;6952866;28;20235;-82
2023/10/24 00:17:22;;;;;;;6.53;4.47;;;;;;;17.79;55.88;97828.13;6964160;28;20370;-83
2023/10/24 00:20:44;;;;;;;5.30;4.23;;;;;;;17.71;55.97;97825.94;6973979;28;20204;-82
2023/10/24 00:24:06;;;;;;;6.63;4.50;;;;;;;17.78;55.61;97818.31;6973091;28;20262;-82
2023/10/24 00:27:27;;;;;;;6.37;4.47;;;;;;;17.76;56.13;97836.03;6973895;28;20305;-82
2023/10/24 00:30:50;;;;;;;7.33;4.43;;;;;;;17.56;55.73;97811.50;6974683;28;20756;-82
2023/10/24 00:34:13;;;;;;;7.30;4.30;;;;;;;17.52;56.40;97840.41;6973949;28;20200;-82
2023/10/24 00:37:34;;;;;;;4.83;4.00;;;;;;;17.32;57.22;97843.06;6955128;28;20307;-82
2023/10/24 00:40:56;;;;;;;5.53;4.67;;;;;;;17.09;58.21;97852.56;6974907;28;20254;-82
2023/10/24 00:44:17;;;;;;;6.23;4.00;;;;;;;17.56;56.01;97842.31;6970224;28;20726;-82
2023/10/24 00:47:40;;;;;;;5.80;4.07;;;;;;;17.78;56.31;97850.19;6951046;28;20313;-82
2023/10/24 00:51:02;;;;;;;4.37;3.83;;;;;;;17.50;55.55;97779.88;6974251;28;20321;-82
2023/10/24 00:54:24;;;;;;;6.57;4.10;;;;;;;17.50;55.79;97804.41;6972431;28;20251;-81
2023/10/24 00:57:45;;;;;;;6.43;4.50;;;;;;;18.04;55.53;97847.16;6972960;28;20248;-82
2023/10/24 01:01:11;;;;;;;4.17;3.73;;;;;;;17.99;55.44;97830.81;6968514;28;20628;-82
2023/10/24 01:04:35;;;;;;;5.00;4.13;;;;;;;18.02;55.72;97830.25;6948611;28;20205;-82
2023/10/24 01:07:56;;;;;;;7.80;4.23;;;;;;;17.92;55.95;97821.28;6974905;28;20233;-82
2023/10/24 01:11:18;;;;;;;6.40;5.27;;;;;;;17.93;56.04;97812.00;6974870;28;20251;-82
2023/10/24 01:14:41;;;;;;;6.70;4.40;;;;;;;17.86;55.72;97808.75;6965898;28;20208;-82
2023/10/24 01:18:03;;;;;;;6.43;3.93;;;;;;;17.95;56.02;97820.72;6973748;28;20812;-83
2023/10/24 01:21:26;;;;;;;6.97;4.60;;;;;;;17.87;56.44;97813.91;6961155;28;20269;-82
2023/10/24 01:24:50;;;;;;;5.80;4.20;;;;;;;17.52;57.68;97796.78;6946536;28;20248;-81
2023/10/24 01:28:12;;;;;;;5.27;3.80;;;;;;;17.57;57.50;97813.16;6956039;28;20251;-82
2023/10/24 01:31:33;;;;;;;5.40;4.03;;;;;;;17.63;57.00;97810.13;6980361;28;20256;-82
2023/10/24 01:34:55;;;;;;;4.57;4.00;;;;;;;17.57;57.30;97805.78;6979332;28;20288;-83
2023/10/24 01:38:16;;;;;;;5.73;3.77;;;;;;;17.04;58.80;97808.19;6980855;28;20232;-83
2023/10/24 01:41:39;;;;;;;6.17;4.03;;;;;;;17.26;59.00;97825.06;6959676;28;20694;-83
2023/10/24 01:45:01;;;;;;;5.50;4.00;;;;;;;17.15;58.48;97758.09;6962586;28;20200;-81
2023/10/24 01:48:25;;;;;;;3.77;3.33;;;;;;;17.42;58.58;97813.13;6980925;28;20679;-82
2023/10/24 01:51:46;;;;;;;4.60;4.13;;;;;;;16.97;58.69;97786.66;6981434;28;20282;-81
2023/10/24 01:55:08;;;;;;;4.07;3.70;;;;;;;15.78;62.70;97776.94;6980047;28;20254;-81
2023/10/24 01:58:31;;;;;;;4.33;3.70;;;;;;;16.72;61.28;97781.16;6982246;28;20307;-82
2023/10/24 02:01:52;;;;;;;5.00;3.80;;;;;;;16.83;60.14;97799.16;6982132;28;20238;-82
2023/10/24 02:05:14;;;;;;;6.70;4.27;;;;;;;16.36;61.64;97784.00;6981907;28;20215;-83
2023/10/24 02:08:35;;;;;;;6.47;4.20;;;;;;;16.43;61.27;97800.94;6982529;28;20219;-82
2023/10/24 02:11:59;;;;;;;3.77;3.47;;;;;;;17.09;59.55;97808.16;6982890;28;20279;-82
2023/10/24 02:15:22;;;;;;;5.23;3.87;;;;;;;17.09;59.26;97808.16;6981190;28;20223;-82
2023/10/24 02:18:44;;;;;;;4.07;3.50;;;;;;;17.30;59.02;97797.03;6983960;28;20675;-81
2023/10/24 02:22:05;;;;;;;4.57;3.60;;;;;;;17.29;58.67;97802.75;6982274;28;20284;-82
2023/10/24 02:25:27;;;;;;;4.53;3.83;;;;;;;17.07;59.31;97805.75;6982065;28;20686;-82
2023/10/24 02:28:48;;;;;;;7.70;3.70;;;;;;;16.93;60.17;97812.78;6983680;28;20723;-81
2023/10/24 02:32:11;;;;;;;4.87;4.20;;;;;;;17.16;59.21;97815.00;6983030;28;20226;-82
2023/10/24 02:35:33;;;;;;;4.50;3.60;;;;;;;17.00;59.59;97794.28;6983429;28;20196;-82
2023/10/24 02:38:54;;;;;;;5.23;3.57;;;;;;;17.28;59.20;97810.09;6982364;28;20225;-82
2023/10/24 02:42:16;;;;;;;5.10;3.80;;;;;;;17.36;58.49;97812.31;6982579;28;20291;-82
2023/10/24 02:45:39;;;;;;;5.70;3.73;;;;;;;17.50;58.31;97816.13;6983479;28;20721;-82
2023/10/24 02:49:02;;;;;;;8.10;3.83;;;;;;;17.58;57.88;97810.13;6984233;28;20284;-83
2023/10/24 02:52:23;;;;;;;4.00;3.43;;;;;;;17.59;57.85;97816.41;6982613;28;20223;-82
2023/10/24 02:55:45;;;;;;;4.97;3.00;;;;;;;17.73;57.02;97807.41;6983129;28;20613;-82
2023/10/24 02:59:06;;;;;;;5.37;3.03;;;;;;;17.57;56.70;97767.63;6984451;28;20669;-82
2023/10/24 03:02:28;;;;;;;3.30;3.00;;;;;;;17.65;56.76;97809.84;6982620;28;20201;-82
2023/10/24 03:05:51;;;;;;;4.40;3.00;;;;;;;18.11;55.41;97816.88;6974031;28;20567;-82
2023/10/24 03:09:12;;;;;;;6.40;3.43;;;;;;;18.14;55.14;97808.13;6981905;28;20883;-82
2023/10/24 03:12:36;;;;;;;5.77;3.13;;;;;;;18.08;55.04;97793.69;6982967;28;20317;-82
2023/10/24 03:16:02;;;;;;;5.00;3.17;;;;;;;17.36;56.39;97738.75;6985047;28;20231;-82
2023/10/24 03:19:24;;;;;;;3.83;3.07;;;;;;;17.31;56.63;97719.66;6985513;28;20192;-82
2023/10/24 03:22:47;;;;;;;4.87;3.03;;;;;;;17.91;56.34;97789.63;6985122;28;20216;-81
2023/10/24 03:26:09;;;;;;;4.23;3.10;;;;;;;18.03;55.82;97790.16;6984971;28;20247;-82
2023/10/24 03:29:34;;;;;;;4.33;3.20;;;;;;;17.88;55.99;97793.72;6985343;28;20677;-82
2023/10/24 03:32:56;;;;;;;5.20;3.47;;;;;;;17.59;57.10;97789.97;6985687;28;20270;-82
2023/10/24 03:36:17;;;;;;;4.40;3.70;;;;;;;16.91;59.21;97760.50;6986262;28;20273;-82
2023/10/24 03:39:41;;;;;;;4.00;3.53;;;;;;;17.21;58.63;97773.34;6986783;28;20208;-82
2023/10/24 03:43:02;;;;;;;6.63;3.37;;;;;;;16.77;59.51;97764.84;6981968;28;20219;-83
2023/10/24 03:46:24;;;;;;;4.13;3.33;;;;;;;17.33;58.29;97763.00;6989214;28;20228;-83
2023/10/24 03:49:45;;;;;;;6.97;3.73;;;;;;;17.53;57.96;97752.91;6989236;28;20203;-82
2023/10/24 03:53:07;;;;;;;7.60;3.40;;;;;;;17.60;57.58;97749.91;6982632;28;20764;-82
2023/10/24 03:56:30;;;;;;;4.30;3.37;;;;;;;17.39;57.32;97710.16;6945957;28;20276;-82
2023/10/24 03:59:52;;;;;;;7.47;3.20;;;;;;;18.03;55.97;97751.97;6945574;28;20286;-82
2023/10/24 04:03:14;;;;;;;3.53;2.80;;;;;;;17.95;56.06;97768.91;6944833;28;20828;-82
2023/10/24 04:06:36;;;;;;;4.20;3.23;;;;;;;16.89;59.30;97759.97;6947276;28;20229;-84
2023/10/24 04:09:57;;;;;;;3.20;2.90;;;;;;;17.12;59.10;97751.28;6946152;28;20238;-82
2023/10/24 04:13:20;;;;;;;9.77;3.00;;;;;;;17.24;58.38;97719.13;6944648;28;20235;-81
2023/10/24 04:16:42;;;;;;;3.93;3.17;;;;;;;17.43;58.36;97731.13;6949306;28;20216;-82
2023/10/24 04:20:06;;;;;;;4.90;3.00;;;;;;;17.65;57.49;97725.34;6973630;28;20238;-82
2023/10/24 04:23:28;;;;;;;4.83;3.47;;;;;;;17.52;57.60;97732.19;6963925;28;20569;-82
2023/10/24 04:26:49;;;;;;;6.93;4.40;;;;;;;17.79;57.17;97731.84;6971791;28;20256;-81
2023/10/24 04:30:13;;;;;;;9.10;4.40;;;;;;;17.71;57.20;97738.72;6971530;28;20208;-82
2023/10/24 04:33:35;;;;;;;5.20;3.63;;;;;;;17.55;57.75;97728.91;6953525;28;20361;-82
2023/10/24 04:36:56;;;;;;;4.10;3.40;;;;;;;17.31;58.42;97727.00;6972767;28;20344;-83
2023/10/24 04:40:19;;;;;;;5.20;3.10;;;;;;;17.47;58.22;97726.78;6976270;28;20199;-81
2023/10/24 04:43:40;;;;;;;5.93;3.27;;;;;;;17.36;58.30;97716.94;6964064;28;20213;-81
2023/10/24 04:47:03;;;;;;;4.87;3.50;;;;;;;17.16;59.49;97737.94;6973655;28;20745;-82
2023/10/24 04:50:25;;;;;;;3.50;3.20;;;;;;;17.22;58.83;97704.16;6973055;28;20284;-82
2023/10/24 04:53:46;;;;;;;5.07;3.23;;;;;;;17.52;58.31;97707.66;6953042;28;20836;-82
2023/10/24 04:57:08;;;;;;;4.40;2.80;;;;;;;17.60;57.73;97715.28;6971335;28;20262;-81
2023/10/24 05:00:29;;;;;;;3.70;3.20;;;;;;;17.20;59.08;97711.75;6963686;28;20269;-82
2023/10/24 05:03:52;;;;;;;4.00;3.47;;;;;;;17.63;58.05;97711.19;6971628;28;20195;-81
2023/10/24 05:07:14;;;;;;;6.57;3.83;;;;;;;17.43;58.35;97701.16;6966062;28;20250;-83
2023/10/24 05:10:36;;;;;;;11.70;7.43;;;;;;;17.70;57.61;97719.91;6952405;28;20219;-82
2023/10/24 05:13:57;;;;;;;6.13;4.67;;;;;;;17.11;59.12;97705.25;6969595;28;20230;-82
2023/10/24 05:17:19;;;;;;;10.03;4.90;;;;;;;16.67;58.65;97606.97;6970591;28;20234;-82
2023/10/24 05:20:42;;;;;;;7.60;4.57;;;;;;;17.27;59.05;97712.31;6971447;28;20227;-83
2023/10/24 05:24:04;;;;;;;6.60;3.30;;;;;;;17.08;59.48;97687.53;6970242;28;20697;-83
2023/10/24 05:27:27;;;;;;;5.20;3.60;;;;;;;17.10;59.65;97684.53;6971187;28;20272;-84
2023/10/24 05:30:48;;;;;;;6.53;3.60;;;;;;;17.31;59.31;97686.13;6971498;28;20289;-82
2023/10/24 05:34:10;;;;;;;4.50;3.13;;;;;;;17.17;59.55;97685.88;6971111;28;20243;-82
2023/10/24 05:37:33;;;;;;;7.47;4.13;;;;;;;16.86;59.61;97632.53;6970344;28;20225;-81
2023/10/24 05:40:54;;;;;;;5.37;3.50;;;;;;;17.02;60.07;97663.28;6970679;28;20290;-82
2023/10/24 05:44:16;;;;;;;11.20;6.73;;;;;;;16.80;60.44;97644.53;6966916;28;20299;-82
2023/10/24 05:47:37;;;;;;;11.40;6.63;;;;;;;17.18;60.04;97675.81;6970471;28;20695;-82
2023/10/24 05:50:59;;;;;;;9.90;6.70;;;;;;;17.05;60.39;97684.53;6970624;28;20690;-82
2023/10/24 05:54:22;;;;;;;8.87;6.30;;;;;;;16.60;59.24;97567.50;6966392;28;20230;-82
2023/10/24 05:57:43;;;;;;;11.90;6.93;;;;;;;17.36;59.33;97694.31;6967929;28;20352;-81
2023/10/24 06:01:05;;;;;;;7.10;5.13;;;;;;;17.25;59.37;97696.25;6967597;28;20294;-82
2023/10/24 06:04:27;;;;;;;8.40;4.80;;;;;;;17.15;59.46;97660.03;6966578;28;20575;-82
2023/10/24 06:07:49;;;;;;;7.33;5.93;;;;;;;16.78;59.54;97608.59;6968692;28;20292;-81
2023/10/24 06:11:12;;;;;;;8.50;5.23;;;;;;;17.24;59.38;97674.72;6965824;28;20212;-82
2023/10/24 06:14:34;;;;;;;5.07;4.57;;;;;;;17.28;59.45;97692.94;6963212;28;20223;-82
2023/10/24 06:17:56;;;;;;;6.03;4.50;;;;;;;17.20;59.01;97698.13;6976126;28;20632;-82
2023/10/24 06:21:17;;;;;;;7.27;4.77;;;;;;;16.88;59.98;97708.50;6975809;28;20207;-86
2023/10/24 06:24:39;;;;;;;4.83;4.20;;;;;;;17.11;59.93;97716.94;6962652;28;20272;-81
2023/10/24 06:28:02;;;;;;;6.43;4.80;;;;;;;17.24;59.30;97713.69;6969929;28;20220;-81
2023/10/24 06:31:24;;;;;;;6.27;4.07;;;;;;;16.85;60.46;97709.03;6974305;28;20341;-82
2023/10/24 06:34:45;;;;;;;5.77;4.20;;;;;;;17.22;59.85;97704.16;6976413;28;20254;-82
2023/10/24 06:38:06;;;;;;;4.63;4.23;;;;;;;17.35;59.42;97670.88;6974889;28;20318;-81
2023/10/24 06:41:28;;;;;;;4.40;4.00;;;;;;;17.27;59.63;97668.72;6975545;28;20293;-85
2023/10/24 06:44:51;;;;;;;7.23;4.07;;;;;;;17.29;59.46;97667.34;6965784;28;20617;-82
2023/10/24 06:48:13;;;;;;;7.80;4.63;;;;;;;17.28;59.60;97668.44;6974015;28;20226;-82
2023/10/24 06:51:34;;;;;;;9.37;4.90;;;;;;;17.28;59.85;97673.09;6973212;28;20226;-82
2023/10/24 06:54:55;;;;;;;5.40;4.23;;;;;;;17.40;59.15;97668.19;6968568;28;20273;-82
2023/10/24 06:58:17;;;;;;;5.67;4.00;;;;;;;16.55;61.58;97674.44;6972860;28;20223;-82
2023/10/24 07:01:40;;;;;;;4.13;3.83;;;;;;;17.03;61.26;97684.81;6973758;28;20630;-82
2023/10/24 07:05:02;;;;;;;11.97;7.33;;;;;;;17.21;60.75;97681.53;6973148;28;20351;-82
2023/10/24 07:08:23;;;;;;;10.03;5.50;;;;;;;17.01;61.05;97669.84;6971396;28;20234;-81
2023/10/24 07:11:45;;;;;;;5.70;4.33;;;;;;;16.92;61.23;97693.28;6965705;28;20701;-81
2023/10/24 07:15:08;;;;;;;8.80;5.93;;;;;;;16.71;62.00;97686.16;6976715;28;20595;-82
2023/10/24 07:18:31;;;;;;;9.23;5.77;;;;;;;17.06;61.41;97683.44;6966741;28;20260;-82
2023/10/24 07:21:52;;;;;;;8.53;6.13;;;;;;;17.17;61.33;97691.31;6972664;28;20241;-83
2023/10/24 07:25:14;;;;;;;8.63;6.00;;;;;;;17.11;61.50;97711.47;6973250;28;20222;-81
2023/10/24 07:28:35;;;;;;;7.53;6.03;;;;;;;17.07;61.46;97698.69;6974444;28;20323;-81
2023/10/24 07:31:58;;;;;;;8.57;5.53;;;;;;;16.92;61.98;97710.41;6973322;28;20601;-82
2023/10/24 07:35:21;;;;;;;12.63;5.90;;;;;;;17.09;61.62;97724.56;6971467;28;20337;-86
2023/10/24 07:38:43;;;;;;;10.17;5.93;;;;;;;16.73;63.18;97711.19;6966241;28;20769;-82
2023/10/24 07:42:05;;;;;;;6.73;6.07;;;;;;;17.04;61.88;97697.34;6971403;28;20685;-83
2023/10/24 07:45:27;;;;;;;8.87;6.07;;;;;;;17.30;61.44;97695.41;6969811;28;20280;-83
2023/10/24 07:48:51;;;;;;;7.30;6.47;;;;;;;17.30;61.49;97687.25;6970125;28;21446;-83
2023/10/24 07:52:14;;;;;;;8.37;6.57;;;;;;;17.33;61.04;97690.22;6970212;28;20204;-82
2023/10/24 07:55:38;;;;;;;12.87;6.30;;;;;;;17.03;61.44;97646.69;6963668;28;20237;-82
2023/10/24 07:58:59;;;;;;;6.43;5.63;;;;;;;17.34;61.62;97688.34;6969474;28;20307;-81
2023/10/24 08:02:21;;;;;;;8.83;6.03;;;;;;;17.13;61.71;97660.31;6965232;28;20678;-84
2023/10/24 08:05:43;;;;;;;9.97;6.13;;;;;;;16.99;61.92;97658.41;6971848;28;20234;-82
2023/10/24 08:09:06;;;;;;;12.20;7.37;;;;;;;17.33;61.73;97701.13;6965575;28;20299;-82
2023/10/24 08:12:28;;;;;;;15.23;7.90;;;;;;;17.61;61.43;97705.19;6958297;28;20313;-82
2023/10/24 08:15:52;;;;;;;15.27;10.20;;;;;;;17.19;61.93;97702.78;6961517;28;20768;-82
2023/10/24 08:19:13;;;;;;;8.73;6.97;;;;;;;16.81;63.88;97711.47;6954346;28;20204;-82
2023/10/24 08:22:35;;;;;;;9.13;6.30;;;;;;;17.16;62.78;97707.97;6960576;28;20669;-84
2023/10/24 08:25:58;;;;;;;6.93;5.80;;;;;;;16.72;63.30;97717.72;6971109;28;20270;-82
2023/10/24 08:29:19;;;;;;;10.10;6.57;;;;;;;17.00;62.60;97728.09;6965836;28;20268;-83
2023/10/24 08:32:41;;;;;;;8.63;6.57;;;;;;;17.10;62.77;97720.75;6972642;28;20238;-83
2023/10/24 08:36:02;;;;;;;9.67;6.50;;;;;;;16.55;63.52;97693.50;6969123;28;20375;-83
2023/10/24 08:39:24;;;;;;;8.33;6.00;;;;;;;17.03;63.26;97741.16;6971221;28;20234;-82
2023/10/24 08:42:47;;;;;;;6.87;6.17;;;;;;;17.20;63.11;97728.94;6971356;28;20198;-83
2023/10/24 08:46:09;;;;;;;9.87;7.60;;;;;;;17.00;63.34;97745.28;6969695;28;20306;-83
2023/10/24 08:49:32;;;;;;;10.30;8.40;;;;;;;17.63;61.91;97752.09;6965815;28;20243;-83
2023/10/24 08:52:54;;;;;;;8.20;6.50;;;;;;;17.74;61.14;97764.59;6962809;28;20694;-83
2023/10/24 08:56:15;;;;;;;7.43;5.93;;;;;;;17.70;61.40;97753.41;6971321;28;20224;-82
2023/10/24 08:59:40;;;;;;;7.17;5.77;;;;;;;17.56;60.98;97737.91;6975512;28;20691;-83
2023/10/24 09:03:03;;;;;;;6.60;5.87;;;;;;;17.61;61.24;97736.00;6946798;28;20232;-84
2023/10/24 09:06:25;;;;;;;9.60;6.80;;;;;;;17.23;62.88;97741.19;6976691;28;20229;-82
2023/10/24 09:09:47;;;;;;;8.27;7.43;;;;;;;16.63;65.25;97743.84;6983306;28;20210;-83
2023/10/24 09:13:09;;;;;;;8.23;6.73;;;;;;;17.59;62.57;97757.28;6944168;28;20892;-83
2023/10/24 09:16:33;;;;;;;8.70;7.43;;;;;;;17.76;62.13;97759.69;6961851;28;20285;-83
2023/10/24 09:19:57;;;;;;;7.30;6.37;;;;;;;18.01;61.24;97755.00;6969933;28;20984;-83
2023/10/24 09:23:18;;;;;;;11.80;6.57;;;;;;;17.99;61.23;97748.19;6969817;28;20223;-84
2023/10/24 09:26:40;;;;;;;7.53;6.50;;;;;;;17.93;61.36;97743.84;6972319;28;20231;-83
2023/10/24 09:30:10;;;;;;;9.43;6.60;;;;;;;17.98;61.02;97725.53;6971665;28;20300;-83
2023/10/24 09:33:33;;;;;;;11.70;7.40;;;;;;;18.05;61.37;97758.78;6971513;28;20220;-83
2023/10/24 09:37:06;;;;;;;8.87;7.57;;;;;;;17.59;62.19;97749.09;6972749;28;20224;-84
2023/10/24 09:40:34;;;;;;;8.90;7.60;;;;;;;17.83;61.73;97738.41;6967233;28;20207;-82
2023/10/24 09:43:59;;;;;;;7.27;6.53;;;;;;;17.72;61.57;97736.78;6972643;28;20285;-86
2023/10/24 09:47:21;;;;;;;9.00;6.13;;;;;;;17.90;62.04;97737.03;6967636;28;20765;-83
2023/10/24 09:50:44;;;;;;;7.30;6.60;;;;;;;17.64;63.43;97742.81;6976628;28;20582;-83
2023/10/24 09:54:08;;;;;;;9.97;7.40;;;;;;;17.61;63.07;97721.53;6975268;28;20260;-84
2023/10/24 09:57:29;;;;;;;16.47;14.07;;;;;;;17.99;63.23;97734.53;6974344;28;20231;-81
2023/10/24 10:00:51;;;;;;;9.20;7.47;;;;;;;17.39;63.64;97713.69;6959066;28;20264;-84
2023/10/24 10:04:13;;;;;;;8.53;6.20;;;;;;;17.65;63.88;97728.91;6965578;28;20268;-83
2023/10/24 10:07:37;;;;;;;12.37;10.57;;;;;;;18.03;63.38;97717.34;6971539;28;20377;-83
2023/10/24 10:11:00;;;;;;;76.53;68.70;;;;;;;18.11;62.91;97711.28;6963854;28;20213;-82
2023/10/24 10:14:30;;;;;;;33.50;30.40;;;;;;;18.62;61.40;97718.16;6971274;28;20224;-83
2023/10/24 10:17:54;;;;;;;24.87;22.57;;;;;;;18.57;61.41;97718.19;6969316;28;20832;-83
2023/10/24 10:21:26;;;;;;;8.40;6.47;;;;;;;17.98;63.13;97706.44;6966681;28;20655;-84
2023/10/24 10:25:19;;;;;;;6.90;5.70;;;;;;;18.38;62.74;97694.53;6973385;28;20232;-81
2023/10/24 10:29:04;;;;;;;7.17;6.23;;;;;;;18.49;61.77;97699.69;6974621;28;20232;-86
2023/10/24 10:32:33;;;;;;;7.43;6.43;;;;;;;18.40;61.92;97684.97;6973508;28;20235;-87
2023/10/24 10:35:56;;;;;;;8.90;7.57;;;;;;;18.44;61.43;97649.75;6959129;28;20215;-84
2023/10/24 10:39:18;;;;;;;7.90;7.00;;;;;;;18.66;61.20;97694.66;6970590;28;20549;-84
2023/10/24 10:42:47;;;;;;;13.57;8.00;;;;;;;18.43;61.88;97662.59;6964521;28;20255;-85
2023/10/24 10:46:18;;;;;;;10.77;7.73;;;;;;;18.44;62.02;97691.50;6972281;28;20228;-84
2023/10/24 10:49:45;;;;;;;8.87;7.70;;;;;;;18.72;62.13;97679.03;6973113;28;20207;-84
2023/10/24 10:53:30;;;;;;;9.00;8.10;;;;;;;18.68;62.08;97683.44;6959163;28;21047;-84
2023/10/24 10:56:52;;;;;;;9.33;7.70;;;;;;;18.57;62.92;97679.97;6968894;28;20754;-84
2023/10/24 11:00:17;;;;;;;12.03;8.87;;;;;;;18.76;62.57;97677.38;6959614;28;20287;-83
2023/10/24 11:03:44;;;;;;;10.37;7.93;;;;;;;18.72;62.73;97668.13;6973076;28;20212;-85
2023/10/24 11:07:06;;;;;;;8.67;7.87;;;;;;;18.71;62.76;97650.13;6956055;28;20224;-83
2023/10/24 11:10:52;;;;;;;11.43;7.90;;;;;;;18.86;62.90;97652.75;6949084;28;20218;-83
2023/10/24 11:14:15;;;;;;;8.87;8.00;;;;;;;18.84;62.68;97654.91;6947990;28;20308;-83
2023/10/24 11:17:38;;;;;;;7.90;7.10;;;;;;;18.93;62.54;97656.75;6947869;28;20257;-83
2023/10/24 11:21:01;;;;;;;9.40;8.17;;;;;;;18.82;62.34;97633.34;6964531;28;20278;-83
2023/10/24 11:24:23;;;;;;;7.97;6.80;;;;;;;18.95;62.44;97648.28;6971804;28;20307;-86
2023/10/24 11:27:46;;;;;;;8.67;7.77;;;;;;;18.95;62.51;97634.63;6969251;28;20229;-84
2023/10/24 11:31:21;;;;;;;11.40;9.33;;;;;;;18.81;62.92;97650.03;6970440;28;21954;-84
2023/10/24 11:34:44;;;;;;;10.53;9.57;;;;;;;18.78;62.99;97635.03;6971104;28;20703;-83
2023/10/24 11:38:06;;;;;;;11.60;9.70;;;;;;;18.96;62.45;97630.78;6964625;28;20367;-84
2023/10/24 11:41:28;;;;;;;12.50;10.10;;;;;;;18.72;62.79;97608.06;6966880;28;20202;-84
2023/10/24 11:44:50;;;;;;;10.67;9.57;;;;;;;18.74;63.47;97614.84;6957996;28;20580;-84
2023/10/24 11:48:11;;;;;;;10.17;8.43;;;;;;;18.97;62.86;97630.50;6971835;28;20252;-84
2023/10/24 11:51:34;;;;;;;10.87;8.33;;;;;;;18.94;62.86;97643.91;6971174;28;20344;-85
2023/10/24 11:54:56;;;;;;;10.20;7.93;;;;;;;18.49;62.76;97570.56;6970453;28;20252;-85
2023/10/24 11:58:17;;;;;;;11.63;7.87;;;;;;;18.86;62.78;97630.91;6968773;28;20315;-84
2023/10/24 12:01:43;;;;;;;9.37;8.33;;;;;;;18.86;63.12;97634.41;6959722;28;20247;-84
2023/10/24 12:05:08;;;;;;;9.53;8.53;;;;;;;18.91;63.29;97636.28;6963755;28;20199;-85
2023/10/24 12:08:31;;;;;;;8.77;7.43;;;;;;;18.90;63.37;97618.28;6957201;28;20311;-85
2023/10/24 12:11:52;;;;;;;8.90;7.40;;;;;;;19.00;63.11;97624.47;6964627;28;20301;-84
2023/10/24 12:15:16;;;;;;;8.90;7.60;;;;;;;19.05;63.29;97629.06;6958259;28;20233;-85
2023/10/24 12:18:38;;;;;;;9.53;7.73;;;;;;;19.21;63.01;97631.41;6956828;28;20714;-85
2023/10/24 12:21:59;;;;;;;11.20;9.70;;;;;;;18.98;63.92;97628.59;6963163;28;20211;-82
2023/10/24 12:25:22;;;;;;;8.23;7.13;;;;;;;19.19;63.41;97632.75;6969564;28;20263;-84
2023/10/24 12:28:45;;;;;;;7.17;6.43;;;;;;;19.18;62.49;97604.63;6968172;28;20252;-83
2023/10/24 12:32:07;;;;;;;14.10;12.67;;;;;;;19.48;62.24;97611.72;6963368;28;20217;-84
2023/10/24 12:35:29;;;;;;;21.63;18.73;;;;;;;19.45;62.42;97607.63;6964169;28;20320;-84
2023/10/24 12:38:51;;;;;;;10.30;9.30;;;;;;;19.53;62.29;97606.19;6956570;28;20223;-83
2023/10/24 12:42:14;;;;;;;9.77;8.27;;;;;;;19.34;61.83;97594.38;6962304;28;20703;-83
2023/10/24 12:45:36;;;;;;;10.43;9.53;;;;;;;19.27;62.08;97605.66;6967551;28;20213;-84
2023/10/24 12:48:58;;;;;;;11.23;9.43;;;;;;;19.28;62.48;97584.59;6957771;28;20763;-84
2023/10/24 12:52:20;;;;;;;9.97;9.07;;;;;;;19.42;62.50;97607.41;6940877;28;20206;-84
2023/10/24 12:55:41;;;;;;;18.57;16.10;;;;;;;19.41;62.41;97590.19;6956552;28;20372;-84
2023/10/24 12:59:04;;;;;;;10.00;9.00;;;;;;;19.45;62.48;97598.63;6965901;28;20355;-84
2023/10/24 13:02:26;;;;;;;10.23;9.23;;;;;;;19.49;62.30;97602.41;6958600;28;20254;-84
2023/10/24 13:05:47;;;;;;;9.60;8.80;;;;;;;19.30;62.87;97582.41;6953415;28;20576;-84
2023/10/24 13:09:09;;;;;;;13.40;10.23;;;;;;;19.53;62.19;97590.63;6955865;28;20244;-83
2023/10/24 13:12:31;;;;;;;11.70;9.30;;;;;;;19.14;62.23;97524.34;6958288;28;20278;-84
2023/10/24 13:15:53;;;;;;;7.03;5.57;;;;;;;19.75;61.51;97592.81;6951762;28;20263;-84
2023/10/24 13:19:15;;;;;;;8.17;7.37;;;;;;;19.73;61.36;97593.09;6961624;28;20305;-84
2023/10/24 13:22:36;;;;;;;11.80;10.60;;;;;;;19.71;61.70;97594.47;6967179;28;20209;-84
2023/10/24 13:25:58;;;;;;;12.00;8.73;;;;;;;19.78;61.73;97595.75;6971448;28;20681;-83
2023/10/24 13:29:21;;;;;;;13.40;10.27;;;;;;;19.82;61.42;97602.25;6959493;28;21045;-84
2023/10/24 13:32:44;;;;;;;15.50;11.90;;;;;;;19.34;61.65;97545.19;6947972;28;20624;-84
2023/10/24 13:36:06;;;;;;;8.50;7.60;;;;;;;19.65;61.59;97592.91;6962668;28;20229;-84
2023/10/24 13:39:28;;;;;;;9.77;6.70;;;;;;;19.74;61.43;97582.97;6958627;28;20688;-84
2023/10/24 13:42:49;;;;;;;5.60;5.10;;;;;;;19.62;61.34;97577.91;6966560;28;20229;-85
2023/10/24 13:46:11;;;;;;;6.60;5.50;;;;;;;19.58;61.77;97576.84;6976122;28;20229;-84
2023/10/24 13:49:34;;;;;;;6.77;4.73;;;;;;;19.22;62.17;97558.44;6977543;28;20697;-83
2023/10/24 13:52:57;;;;;;;6.87;4.77;;;;;;;19.16;63.14;97565.84;6973553;28;20202;-84
2023/10/24 13:56:18;;;;;;;7.43;4.70;;;;;;;19.28;62.94;97557.28;6974547;28;20229;-84
2023/10/24 13:59:41;;;;;;;5.30;4.60;;;;;;;19.31;62.67;97562.16;6970327;28;20214;-84
2023/10/24 14:03:02;;;;;;;4.07;3.57;;;;;;;19.32;62.41;97564.59;6970770;28;20298;-84
2023/10/24 14:06:25;;;;;;;4.17;3.70;;;;;;;19.28;62.30;97543.63;6969488;28;20271;-84
2023/10/24 14:09:46;;;;;;;7.80;4.90;;;;;;;19.61;62.14;97564.53;6964466;28;20195;-84
2023/10/24 14:13:08;;;;;;;5.37;4.73;;;;;;;19.69;61.40;97575.63;6969089;28;20647;-84
2023/10/24 14:16:30;;;;;;;4.60;3.90;;;;;;;19.58;61.42;97581.53;6955194;28;20261;-84
2023/10/24 14:19:51;;;;;;;10.03;8.07;;;;;;;19.48;61.72;97579.72;6972313;28;20783;-84
2023/10/24 14:23:14;;;;;;;5.33;4.57;;;;;;;19.37;61.46;97544.59;6965115;28;20306;-84
2023/10/24 14:26:36;;;;;;;6.33;4.53;;;;;;;19.56;61.69;97570.03;6973632;28;20228;-84
2023/10/24 14:29:58;;;;;;;3.47;3.20;;;;;;;19.64;61.17;97569.41;6966868;28;20669;-84
2023/10/24 14:33:19;;;;;;;4.23;3.83;;;;;;;19.61;60.91;97570.00;6964459;28;20244;-84
2023/10/24 14:36:41;;;;;;;5.70;4.00;;;;;;;19.46;61.22;97545.59;6969933;28;20387;-83
2023/10/24 14:40:05;;;;;;;6.10;5.50;;;;;;;19.21;61.58;97546.69;6971211;28;20340;-83
2023/10/24 14:43:26;;;;;;;3.97;3.60;;;;;;;18.86;62.86;97576.28;6950054;28;20293;-84
2023/10/24 14:46:48;;;;;;;4.40;4.00;;;;;;;19.32;62.21;97561.88;6962385;28;20270;-84
2023/10/24 14:50:10;;;;;;;4.43;3.80;;;;;;;19.11;62.40;97554.16;6958394;28;20754;-83
2023/10/24 14:53:32;;;;;;;5.23;3.43;;;;;;;19.39;61.61;97581.47;6963678;28;20297;-84
2023/10/24 14:56:54;;;;;;;3.67;3.37;;;;;;;19.54;61.04;97570.38;6968938;28;20379;-83
2023/10/24 15:00:17;;;;;;;3.87;3.57;;;;;;;19.45;60.80;97580.28;6979026;28;20270;-82
2023/10/24 15:03:39;;;;;;;4.47;4.07;;;;;;;19.27;61.09;97581.06;6959653;28;20313;-83
2023/10/24 15:07:03;;;;;;;10.77;8.63;;;;;;;19.12;61.45;97563.97;6973810;28;20225;-83
2023/10/24 15:10:24;;;;;;;10.57;9.07;;;;;;;19.36;61.60;97578.50;6979050;28;20210;-83
2023/10/24 15:13:47;;;;;;;8.53;7.37;;;;;;;19.46;61.28;97578.38;6969743;28;20271;-82
2023/10/24 15:17:09;;;;;;;5.60;4.37;;;;;;;19.02;62.09;97577.72;6970053;28;20608;-82
2023/10/24 15:20:31;;;;;;;4.90;3.83;;;;;;;19.33;61.53;97582.63;6994731;28;20271;-82
2023/10/24 15:23:53;;;;;;;5.57;4.40;;;;;;;18.99;60.95;97497.16;6976024;28;20205;-82
2023/10/24 15:27:17;;;;;;;5.80;4.20;;;;;;;19.41;60.63;97565.56;6984013;28;20767;-82
2023/10/24 15:30:42;;;;;;;4.47;4.07;;;;;;;19.21;60.68;97527.56;6971012;28;20320;-82
2023/10/24 15:34:03;;;;;;;7.90;4.43;;;;;;;19.07;61.41;97534.81;6975767;28;20204;-81
2023/10/24 15:37:25;;;;;;;5.30;4.80;;;;;;;19.22;61.21;97555.72;6966748;28;20280;-82
2023/10/24 15:40:46;;;;;;;5.37;4.87;;;;;;;19.08;61.52;97557.44;6973242;28;20209;-81
2023/10/24 15:44:08;;;;;;;6.10;5.33;;;;;;;18.83;62.02;97552.25;6967664;28;20571;-81
2023/10/24 15:47:37;;;;;;;5.90;4.60;;;;;;;19.02;61.31;97551.25;6965422;28;20583;-82
2023/10/24 15:51:01;;;;;;;5.73;5.17;;;;;;;18.96;61.60;97532.44;6961233;28;20572;-83